sensor_id;sensor_type;location;lat;lon;timestamp;temperature;humidity
47618;DHT22;33336;36.728;-4.414;2023-08-20T00:04:06;30.60;93.20
47618;DHT22;33336;36.728;-4.414;2023-08-20T00:09:09;30.70;92.80
47618;DHT22;33336;36.728;-4.414;2023-08-20T00:14:15;30.80;92.10
47618;DHT22;33336;36.728;-4.414;2023-08-20T00:19:18;30.90;91.40
47618;DHT22;33336;36.728;-4.414;2023-08-20T00:24:22;30.40;91.80
47618;DHT22;33336;36.728;-4.414;2023-08-20T00:29:27;30.10;90.70
47618;DHT22;33336;36.728;-4.414;2023-08-20T00:34:30;29.80;89.50
47618;DHT22;33336;36.728;-4.414;2023-08-20T00:39:33;29.50;88.70
47618;DHT22;33336;36.728;-4.414;2023-08-20T00:44:37;29.10;88.70
47618;DHT22;33336;36.728;-4.414;2023-08-20T00:49:42;29.20;87.80
47618;DHT22;33336;36.728;-4.414;2023-08-20T00:54:45;28.90;87.00
47618;DHT22;33336;36.728;-4.414;2023-08-20T00:59:51;29.40;87.20
47618;DHT22;33336;36.728;-4.414;2023-08-20T01:04:54;29.90;87.20
47618;DHT22;33336;36.728;-4.414;2023-08-20T01:10:04;30.30;86.90
47618;DHT22;33336;36.728;-4.414;2023-08-20T01:15:10;30.30;85.90
47618;DHT22;33336;36.728;-4.414;2023-08-20T01:20:15;30.50;86.20
47618;DHT22;33336;36.728;-4.414;2023-08-20T01:25:28;30.60;86.50
47618;DHT22;33336;36.728;-4.414;2023-08-20T01:30:35;30.40;88.40
47618;DHT22;33336;36.728;-4.414;2023-08-20T01:35:38;30.60;88.50
47618;DHT22;33336;36.728;-4.414;2023-08-20T01:40:41;30.50;88.10
47618;DHT22;33336;36.728;-4.414;2023-08-20T01:45:46;30.30;88.10
47618;DHT22;33336;36.728;-4.414;2023-08-20T01:50:49;30.10;87.80
47618;DHT22;33336;36.728;-4.414;2023-08-20T01:55:52;29.70;85.70
47618;DHT22;33336;36.728;-4.414;2023-08-20T02:00:57;29.70;84.80
47618;DHT22;33336;36.728;-4.414;2023-08-20T02:06:00;29.80;84.70
47618;DHT22;33336;36.728;-4.414;2023-08-20T02:11:03;30.10;83.80
47618;DHT22;33336;36.728;-4.414;2023-08-20T02:16:07;29.80;82.90
47618;DHT22;33336;36.728;-4.414;2023-08-20T02:21:10;29.50;83.00
47618;DHT22;33336;36.728;-4.414;2023-08-20T02:26:13;29.90;82.70
47618;DHT22;33336;36.728;-4.414;2023-08-20T02:31:17;30.00;81.50
47618;DHT22;33336;36.728;-4.414;2023-08-20T02:36:20;29.90;81.40
47618;DHT22;33336;36.728;-4.414;2023-08-20T02:41:23;29.90;80.30
47618;DHT22;33336;36.728;-4.414;2023-08-20T02:46:28;29.80;79.00
47618;DHT22;33336;36.728;-4.414;2023-08-20T02:51:31;29.70;78.80
47618;DHT22;33336;36.728;-4.414;2023-08-20T02:56:34;29.80;79.00
47618;DHT22;33336;36.728;-4.414;2023-08-20T03:01:39;30.00;78.70
47618;DHT22;33336;36.728;-4.414;2023-08-20T03:06:42;30.00;78.50
47618;DHT22;33336;36.728;-4.414;2023-08-20T03:11:45;30.10;78.40
47618;DHT22;33336;36.728;-4.414;2023-08-20T03:16:50;30.00;78.20
47618;DHT22;33336;36.728;-4.414;2023-08-20T03:21:52;30.10;77.70
47618;DHT22;33336;36.728;-4.414;2023-08-20T03:26:56;29.40;76.70
47618;DHT22;33336;36.728;-4.414;2023-08-20T03:32:00;29.40;79.20
47618;DHT22;33336;36.728;-4.414;2023-08-20T03:37:04;29.30;85.80
47618;DHT22;33336;36.728;-4.414;2023-08-20T03:42:06;29.00;96.00
47618;DHT22;33336;36.728;-4.414;2023-08-20T03:47:12;29.30;96.00
47618;DHT22;33336;36.728;-4.414;2023-08-20T03:52:15;29.50;95.30
47618;DHT22;33336;36.728;-4.414;2023-08-20T03:57:18;29.30;97.00
47618;DHT22;33336;36.728;-4.414;2023-08-20T04:02:23;29.40;97.20
47618;DHT22;33336;36.728;-4.414;2023-08-20T04:07:26;29.50;96.60
47618;DHT22;33336;36.728;-4.414;2023-08-20T04:12:29;29.60;95.50
47618;DHT22;33336;36.728;-4.414;2023-08-20T04:17:33;29.50;94.90
47618;DHT22;33336;36.728;-4.414;2023-08-20T04:22:36;29.60;94.70
47618;DHT22;33336;36.728;-4.414;2023-08-20T04:27:40;29.40;92.40
47618;DHT22;33336;36.728;-4.414;2023-08-20T04:32:44;28.90;91.60
47618;DHT22;33336;36.728;-4.414;2023-08-20T04:37:48;29.10;91.20
47618;DHT22;33336;36.728;-4.414;2023-08-20T04:42:51;29.20;91.20
47618;DHT22;33336;36.728;-4.414;2023-08-20T04:47:56;29.30;90.90
47618;DHT22;33336;36.728;-4.414;2023-08-20T04:52:58;29.40;89.00
47618;DHT22;33336;36.728;-4.414;2023-08-20T04:58:02;29.40;88.00
47618;DHT22;33336;36.728;-4.414;2023-08-20T05:03:07;29.40;88.10
47618;DHT22;33336;36.728;-4.414;2023-08-20T05:08:10;29.40;87.50
47618;DHT22;33336;36.728;-4.414;2023-08-20T05:13:15;29.20;86.30
47618;DHT22;33336;36.728;-4.414;2023-08-20T05:18:20;29.30;85.50
47618;DHT22;33336;36.728;-4.414;2023-08-20T05:23:23;29.30;84.70
47618;DHT22;33336;36.728;-4.414;2023-08-20T05:28:27;29.10;84.10
47618;DHT22;33336;36.728;-4.414;2023-08-20T05:33:31;29.20;85.00
47618;DHT22;33336;36.728;-4.414;2023-08-20T05:38:34;29.10;84.10
47618;DHT22;33336;36.728;-4.414;2023-08-20T05:43:37;29.10;82.30
47618;DHT22;33336;36.728;-4.414;2023-08-20T05:48:42;29.20;82.20
47618;DHT22;33336;36.728;-4.414;2023-08-20T05:53:44;29.00;81.90
47618;DHT22;33336;36.728;-4.414;2023-08-20T05:58:47;28.90;82.10
47618;DHT22;33336;36.728;-4.414;2023-08-20T06:03:51;28.90;80.30
47618;DHT22;33336;36.728;-4.414;2023-08-20T06:08:54;29.10;79.70
47618;DHT22;33336;36.728;-4.414;2023-08-20T06:13:57;29.10;79.40
47618;DHT22;33336;36.728;-4.414;2023-08-20T06:19:02;29.10;78.70
47618;DHT22;33336;36.728;-4.414;2023-08-20T06:24:05;29.30;78.60
47618;DHT22;33336;36.728;-4.414;2023-08-20T06:29:08;29.40;78.00
47618;DHT22;33336;36.728;-4.414;2023-08-20T06:34:13;29.40;78.20
47618;DHT22;33336;36.728;-4.414;2023-08-20T06:39:16;29.50;78.10
47618;DHT22;33336;36.728;-4.414;2023-08-20T06:44:21;29.70;77.90
47618;DHT22;33336;36.728;-4.414;2023-08-20T06:49:26;29.70;78.10
47618;DHT22;33336;36.728;-4.414;2023-08-20T06:54:29;29.80;77.70
47618;DHT22;33336;36.728;-4.414;2023-08-20T06:59:32;29.90;77.50
47618;DHT22;33336;36.728;-4.414;2023-08-20T07:04:36;30.00;77.50
47618;DHT22;33336;36.728;-4.414;2023-08-20T07:09:39;30.20;77.50
47618;DHT22;33336;36.728;-4.414;2023-08-20T07:14:42;30.00;77.40
47618;DHT22;33336;36.728;-4.414;2023-08-20T07:19:47;29.80;77.70
47618;DHT22;33336;36.728;-4.414;2023-08-20T07:24:50;30.00;78.50
47618;DHT22;33336;36.728;-4.414;2023-08-20T07:29:52;30.10;80.20
47618;DHT22;33336;36.728;-4.414;2023-08-20T07:34:57;29.80;82.30
47618;DHT22;33336;36.728;-4.414;2023-08-20T07:40:00;30.10;83.00
47618;DHT22;33336;36.728;-4.414;2023-08-20T07:45:03;30.10;82.70
47618;DHT22;33336;36.728;-4.414;2023-08-20T07:50:09;30.50;82.50
47618;DHT22;33336;36.728;-4.414;2023-08-20T07:55:11;30.20;83.70
47618;DHT22;33336;36.728;-4.414;2023-08-20T08:00:16;29.90;86.00
47618;DHT22;33336;36.728;-4.414;2023-08-20T08:05:20;30.00;88.60
47618;DHT22;33336;36.728;-4.414;2023-08-20T08:10:23;30.10;90.30
47618;DHT22;33336;36.728;-4.414;2023-08-20T08:15:26;30.20;91.00
47618;DHT22;33336;36.728;-4.414;2023-08-20T08:20:31;30.00;91.00
47618;DHT22;33336;36.728;-4.414;2023-08-20T08:25:34;30.20;91.30
47618;DHT22;33336;36.728;-4.414;2023-08-20T08:30:37;30.30;91.70
47618;DHT22;33336;36.728;-4.414;2023-08-20T08:35:42;30.80;91.70
47618;DHT22;33336;36.728;-4.414;2023-08-20T08:40:46;30.60;92.20
47618;DHT22;33336;36.728;-4.414;2023-08-20T08:45:49;30.60;93.20
47618;DHT22;33336;36.728;-4.414;2023-08-20T08:50:54;30.90;93.10
47618;DHT22;33336;36.728;-4.414;2023-08-20T08:55:57;31.20;93.40
47618;DHT22;33336;36.728;-4.414;2023-08-20T09:01:00;31.50;92.10
47618;DHT22;33336;36.728;-4.414;2023-08-20T09:06:08;30.90;92.70
47618;DHT22;33336;36.728;-4.414;2023-08-20T09:11:11;31.50;92.80
47618;DHT22;33336;36.728;-4.414;2023-08-20T09:16:14;31.30;93.30
47618;DHT22;33336;36.728;-4.414;2023-08-20T09:21:19;31.80;94.00
47618;DHT22;33336;36.728;-4.414;2023-08-20T09:26:22;31.70;95.40
47618;DHT22;33336;36.728;-4.414;2023-08-20T09:31:37;31.00;97.10
47618;DHT22;33336;36.728;-4.414;2023-08-20T09:36:43;31.20;99.10
47618;DHT22;33336;36.728;-4.414;2023-08-20T09:41:48;30.80;99.90
47618;DHT22;33336;36.728;-4.414;2023-08-20T09:46:54;30.90;99.90
47618;DHT22;33336;36.728;-4.414;2023-08-20T09:51:59;31.00;99.90
47618;DHT22;33336;36.728;-4.414;2023-08-20T09:57:09;31.20;99.90
47618;DHT22;33336;36.728;-4.414;2023-08-20T10:02:14;30.90;99.90
47618;DHT22;33336;36.728;-4.414;2023-08-20T10:07:19;30.90;99.90
47618;DHT22;33336;36.728;-4.414;2023-08-20T10:12:23;30.80;99.90
47618;DHT22;33336;36.728;-4.414;2023-08-20T10:17:29;30.70;99.90
47618;DHT22;33336;36.728;-4.414;2023-08-20T10:22:35;30.70;99.90
47618;DHT22;33336;36.728;-4.414;2023-08-20T10:27:40;30.70;99.90
47618;DHT22;33336;36.728;-4.414;2023-08-20T10:32:48;30.50;99.90
47618;DHT22;33336;36.728;-4.414;2023-08-20T10:38:06;30.30;99.90
47618;DHT22;33336;36.728;-4.414;2023-08-20T10:43:09;30.40;99.90
47618;DHT22;33336;36.728;-4.414;2023-08-20T10:48:12;30.40;99.90
47618;DHT22;33336;36.728;-4.414;2023-08-20T10:53:17;30.30;99.90
47618;DHT22;33336;36.728;-4.414;2023-08-20T10:58:23;30.40;99.90
47618;DHT22;33336;36.728;-4.414;2023-08-20T11:03:27;29.90;99.90
47618;DHT22;33336;36.728;-4.414;2023-08-20T11:08:32;30.00;99.90
47618;DHT22;33336;36.728;-4.414;2023-08-20T11:13:35;30.50;99.90
47618;DHT22;33336;36.728;-4.414;2023-08-20T11:18:39;30.80;99.90
47618;DHT22;33336;36.728;-4.414;2023-08-20T11:23:44;30.70;99.90
47618;DHT22;33336;36.728;-4.414;2023-08-20T11:28:49;30.30;99.90
47618;DHT22;33336;36.728;-4.414;2023-08-20T11:33:52;30.80;99.90
47618;DHT22;33336;36.728;-4.414;2023-08-20T11:38:58;31.30;99.90
47618;DHT22;33336;36.728;-4.414;2023-08-20T11:44:00;31.20;99.90
47618;DHT22;33336;36.728;-4.414;2023-08-20T11:49:06;30.50;99.90
47618;DHT22;33336;36.728;-4.414;2023-08-20T11:54:12;30.20;99.90
47618;DHT22;33336;36.728;-4.414;2023-08-20T11:59:16;30.80;99.90
47618;DHT22;33336;36.728;-4.414;2023-08-20T12:04:23;31.20;99.90
47618;DHT22;33336;36.728;-4.414;2023-08-20T12:09:28;30.90;99.90
47618;DHT22;33336;36.728;-4.414;2023-08-20T12:14:31;31.30;99.90
47618;DHT22;33336;36.728;-4.414;2023-08-20T12:19:34;31.50;99.90
47618;DHT22;33336;36.728;-4.414;2023-08-20T12:24:38;31.00;99.90
47618;DHT22;33336;36.728;-4.414;2023-08-20T12:29:42;30.70;99.90
47618;DHT22;33336;36.728;-4.414;2023-08-20T12:34:45;31.30;99.90
47618;DHT22;33336;36.728;-4.414;2023-08-20T12:39:49;31.40;99.90
47618;DHT22;33336;36.728;-4.414;2023-08-20T12:44:52;31.40;99.90
47618;DHT22;33336;36.728;-4.414;2023-08-20T12:49:56;32.10;99.90
47618;DHT22;33336;36.728;-4.414;2023-08-20T12:55:01;32.00;99.90
47618;DHT22;33336;36.728;-4.414;2023-08-20T13:00:05;32.70;99.90
47618;DHT22;33336;36.728;-4.414;2023-08-20T13:05:13;32.80;99.90
47618;DHT22;33336;36.728;-4.414;2023-08-20T13:10:19;32.80;99.90
47618;DHT22;33336;36.728;-4.414;2023-08-20T13:15:22;33.10;99.90
47618;DHT22;33336;36.728;-4.414;2023-08-20T13:20:27;32.90;99.90
47618;DHT22;33336;36.728;-4.414;2023-08-20T13:25:31;33.30;99.90
47618;DHT22;33336;36.728;-4.414;2023-08-20T13:30:35;33.50;99.90
47618;DHT22;33336;36.728;-4.414;2023-08-20T13:35:38;34.40;99.90
47618;DHT22;33336;36.728;-4.414;2023-08-20T13:40:42;35.00;99.90
47618;DHT22;33336;36.728;-4.414;2023-08-20T13:45:46;34.10;99.90
47618;DHT22;33336;36.728;-4.414;2023-08-20T13:50:49;34.10;99.90
47618;DHT22;33336;36.728;-4.414;2023-08-20T13:55:54;34.60;99.90
47618;DHT22;33336;36.728;-4.414;2023-08-20T14:00:58;34.10;99.90
47618;DHT22;33336;36.728;-4.414;2023-08-20T14:06:01;34.50;99.90
47618;DHT22;33336;36.728;-4.414;2023-08-20T14:11:06;34.40;99.90
47618;DHT22;33336;36.728;-4.414;2023-08-20T14:16:09;34.30;99.90
47618;DHT22;33336;36.728;-4.414;2023-08-20T14:21:12;34.10;99.90
47618;DHT22;33336;36.728;-4.414;2023-08-20T14:26:17;34.70;99.90
47618;DHT22;33336;36.728;-4.414;2023-08-20T14:31:21;35.00;99.90
47618;DHT22;33336;36.728;-4.414;2023-08-20T14:36:24;34.70;99.90
47618;DHT22;33336;36.728;-4.414;2023-08-20T14:41:28;33.80;99.90
47618;DHT22;33336;36.728;-4.414;2023-08-20T14:46:31;33.80;99.90
47618;DHT22;33336;36.728;-4.414;2023-08-20T14:51:36;34.30;99.90
47618;DHT22;33336;36.728;-4.414;2023-08-20T14:56:40;34.80;99.90
47618;DHT22;33336;36.728;-4.414;2023-08-20T15:01:44;35.50;99.90
47618;DHT22;33336;36.728;-4.414;2023-08-20T15:06:47;35.50;99.90
47618;DHT22;33336;36.728;-4.414;2023-08-20T15:11:51;35.10;99.90
47618;DHT22;33336;36.728;-4.414;2023-08-20T15:16:54;35.90;99.90
47618;DHT22;33336;36.728;-4.414;2023-08-20T15:21:57;35.70;99.90
47618;DHT22;33336;36.728;-4.414;2023-08-20T15:27:01;34.50;99.90
47618;DHT22;33336;36.728;-4.414;2023-08-20T15:32:06;36.00;99.90
47618;DHT22;33336;36.728;-4.414;2023-08-20T15:37:09;36.00;99.90
47618;DHT22;33336;36.728;-4.414;2023-08-20T15:42:14;36.10;99.90
47618;DHT22;33336;36.728;-4.414;2023-08-20T15:47:17;35.90;99.90
47618;DHT22;33336;36.728;-4.414;2023-08-20T15:52:21;36.30;99.90
47618;DHT22;33336;36.728;-4.414;2023-08-20T15:57:25;36.80;99.90
47618;DHT22;33336;36.728;-4.414;2023-08-20T16:02:29;37.90;99.90
47618;DHT22;33336;36.728;-4.414;2023-08-20T16:07:32;38.70;98.70
47618;DHT22;33336;36.728;-4.414;2023-08-20T16:12:36;37.50;99.30
47618;DHT22;33336;36.728;-4.414;2023-08-20T16:17:39;36.70;99.90
47618;DHT22;33336;36.728;-4.414;2023-08-20T16:22:45;36.50;99.90
47618;DHT22;33336;36.728;-4.414;2023-08-20T16:27:49;39.30;99.00
47618;DHT22;33336;36.728;-4.414;2023-08-20T16:32:55;38.80;98.80
47618;DHT22;33336;36.728;-4.414;2023-08-20T16:37:57;40.00;97.60
47618;DHT22;33336;36.728;-4.414;2023-08-20T16:43:03;40.60;96.40
47618;DHT22;33336;36.728;-4.414;2023-08-20T16:48:06;40.40;95.60
47618;DHT22;33336;36.728;-4.414;2023-08-20T16:53:09;41.10;95.70
47618;DHT22;33336;36.728;-4.414;2023-08-20T16:58:13;40.40;95.10
47618;DHT22;33336;36.728;-4.414;2023-08-20T17:03:16;40.90;94.50
47618;DHT22;33336;36.728;-4.414;2023-08-20T17:08:19;39.40;96.00
47618;DHT22;33336;36.728;-4.414;2023-08-20T17:13:23;40.30;95.60
47618;DHT22;33336;36.728;-4.414;2023-08-20T17:18:26;41.80;94.90
47618;DHT22;33336;36.728;-4.414;2023-08-20T17:23:31;42.50;93.30
47618;DHT22;33336;36.728;-4.414;2023-08-20T17:28:35;43.00;93.20
47618;DHT22;33336;36.728;-4.414;2023-08-20T17:33:39;43.50;92.80
47618;DHT22;33336;36.728;-4.414;2023-08-20T17:38:43;42.80;91.80
47618;DHT22;33336;36.728;-4.414;2023-08-20T17:43:48;43.70;91.90
47618;DHT22;33336;36.728;-4.414;2023-08-20T17:48:51;42.80;92.00
47618;DHT22;33336;36.728;-4.414;2023-08-20T17:53:55;44.10;91.70
47618;DHT22;33336;36.728;-4.414;2023-08-20T17:58:59;42.10;92.00
47618;DHT22;33336;36.728;-4.414;2023-08-20T18:04:02;42.60;92.60
47618;DHT22;33336;36.728;-4.414;2023-08-20T18:09:05;43.00;91.90
47618;DHT22;33336;36.728;-4.414;2023-08-20T18:14:09;41.70;92.00
47618;DHT22;33336;36.728;-4.414;2023-08-20T18:19:12;41.90;92.30
47618;DHT22;33336;36.728;-4.414;2023-08-20T18:24:17;41.00;92.70
47618;DHT22;33336;36.728;-4.414;2023-08-20T18:29:21;40.40;93.30
47618;DHT22;33336;36.728;-4.414;2023-08-20T18:34:24;38.60;94.40
47618;DHT22;33336;36.728;-4.414;2023-08-20T18:39:27;36.20;96.90
47618;DHT22;33336;36.728;-4.414;2023-08-20T18:44:32;36.40;97.70
47618;DHT22;33336;36.728;-4.414;2023-08-20T18:49:37;35.30;99.60
47618;DHT22;33336;36.728;-4.414;2023-08-20T18:54:40;35.50;99.40
47618;DHT22;33336;36.728;-4.414;2023-08-20T18:59:45;35.60;99.80
47618;DHT22;33336;36.728;-4.414;2023-08-20T19:04:49;35.40;99.90
47618;DHT22;33336;36.728;-4.414;2023-08-20T19:09:53;34.80;99.90
47618;DHT22;33336;36.728;-4.414;2023-08-20T19:14:58;34.20;99.90
47618;DHT22;33336;36.728;-4.414;2023-08-20T19:20:00;34.30;99.90
47618;DHT22;33336;36.728;-4.414;2023-08-20T19:25:06;34.10;99.90
47618;DHT22;33336;36.728;-4.414;2023-08-20T19:30:12;33.70;99.90
47618;DHT22;33336;36.728;-4.414;2023-08-20T19:35:16;32.00;99.90
47618;DHT22;33336;36.728;-4.414;2023-08-20T19:40:19;32.20;99.90
47618;DHT22;33336;36.728;-4.414;2023-08-20T19:45:23;32.40;99.90
47618;DHT22;33336;36.728;-4.414;2023-08-20T19:50:27;32.00;99.90
47618;DHT22;33336;36.728;-4.414;2023-08-20T19:55:31;31.30;99.90
47618;DHT22;33336;36.728;-4.414;2023-08-20T20:00:35;31.20;99.90
47618;DHT22;33336;36.728;-4.414;2023-08-20T20:05:39;31.50;99.90
47618;DHT22;33336;36.728;-4.414;2023-08-20T20:10:42;32.10;99.90
47618;DHT22;33336;36.728;-4.414;2023-08-20T20:15:46;32.40;99.90
47618;DHT22;33336;36.728;-4.414;2023-08-20T20:20:49;32.00;99.90
47618;DHT22;33336;36.728;-4.414;2023-08-20T20:25:53;31.50;99.90
47618;DHT22;33336;36.728;-4.414;2023-08-20T20:30:57;31.50;99.90
47618;DHT22;33336;36.728;-4.414;2023-08-20T20:36:02;30.90;99.90
47618;DHT22;33336;36.728;-4.414;2023-08-20T20:41:06;31.00;99.90
47618;DHT22;33336;36.728;-4.414;2023-08-20T20:46:11;30.70;99.90
47618;DHT22;33336;36.728;-4.414;2023-08-20T20:51:14;30.40;99.90
47618;DHT22;33336;36.728;-4.414;2023-08-20T20:56:18;30.40;99.90
47618;DHT22;33336;36.728;-4.414;2023-08-20T21:01:22;30.30;99.90
47618;DHT22;33336;36.728;-4.414;2023-08-20T21:06:26;30.30;99.90
47618;DHT22;33336;36.728;-4.414;2023-08-20T21:11:32;30.10;99.90
47618;DHT22;33336;36.728;-4.414;2023-08-20T21:16:36;30.30;99.90
47618;DHT22;33336;36.728;-4.414;2023-08-20T21:21:40;30.40;99.90
47618;DHT22;33336;36.728;-4.414;2023-08-20T21:26:45;30.60;99.90
47618;DHT22;33336;36.728;-4.414;2023-08-20T21:31:50;30.80;99.90
47618;DHT22;33336;36.728;-4.414;2023-08-20T21:36:53;30.80;99.90
47618;DHT22;33336;36.728;-4.414;2023-08-20T21:41:56;30.80;99.90
47618;DHT22;33336;36.728;-4.414;2023-08-20T21:47:00;30.30;99.90
47618;DHT22;33336;36.728;-4.414;2023-08-20T21:52:21;30.30;99.90
47618;DHT22;33336;36.728;-4.414;2023-08-20T21:57:25;30.60;99.90
47618;DHT22;33336;36.728;-4.414;2023-08-20T22:02:29;30.30;99.90
47618;DHT22;33336;36.728;-4.414;2023-08-20T22:07:33;30.30;99.90
47618;DHT22;33336;36.728;-4.414;2023-08-20T22:12:36;30.70;99.90
47618;DHT22;33336;36.728;-4.414;2023-08-20T22:17:41;30.40;99.90
47618;DHT22;33336;36.728;-4.414;2023-08-20T22:22:44;30.50;99.90
47618;DHT22;33336;36.728;-4.414;2023-08-20T22:27:48;30.20;99.90
47618;DHT22;33336;36.728;-4.414;2023-08-20T22:32:52;30.80;99.90
47618;DHT22;33336;36.728;-4.414;2023-08-20T22:38:03;31.00;99.90
47618;DHT22;33336;36.728;-4.414;2023-08-20T22:43:07;30.80;99.90
47618;DHT22;33336;36.728;-4.414;2023-08-20T22:48:12;30.60;99.90
47618;DHT22;33336;36.728;-4.414;2023-08-20T22:53:15;30.50;99.90
47618;DHT22;33336;36.728;-4.414;2023-08-20T22:58:19;30.40;99.90
47618;DHT22;33336;36.728;-4.414;2023-08-20T23:03:23;30.80;99.90
47618;DHT22;33336;36.728;-4.414;2023-08-20T23:08:27;29.60;99.90
47618;DHT22;33336;36.728;-4.414;2023-08-20T23:13:30;29.80;99.90
47618;DHT22;33336;36.728;-4.414;2023-08-20T23:18:34;30.20;99.90
47618;DHT22;33336;36.728;-4.414;2023-08-20T23:23:37;30.50;99.90
47618;DHT22;33336;36.728;-4.414;2023-08-20T23:28:41;30.70;99.90
47618;DHT22;33336;36.728;-4.414;2023-08-20T23:33:45;30.70;99.90
47618;DHT22;33336;36.728;-4.414;2023-08-20T23:38:52;29.90;99.90
47618;DHT22;33336;36.728;-4.414;2023-08-20T23:43:55;30.20;99.90
47618;DHT22;33336;36.728;-4.414;2023-08-20T23:48:59;30.20;99.90
47618;DHT22;33336;36.728;-4.414;2023-08-20T23:54:02;30.30;99.90
47618;DHT22;33336;36.728;-4.414;2023-08-20T23:59:06;30.30;99.90
